Time;durP1;ratioP1;P1;durP2;ratioP2;P2;SDS_P1;SDS_P2;PMS_P1;PMS_P2;Temp;Humidity;BMP_temperature;BMP_pressure;BME280_temperature;BME280_humidity;BME280_pressure;Samples;Min_cycle;Max_cycle;Signal;HPM_P1;HPM_P2
2022/05/14 00:00:02;;;;;;;12.50;2.10;;;;;;;12.92;68.19;100819.88;5178404;56;1139031;-75
2022/05/14 00:05:10;;;;;;;5.97;2.27;;;;;;;12.91;68.44;100823.02;5149593;57;1141144;-75
2022/05/14 00:10:18;;;;;;;8.47;2.50;;;;;;;12.89;68.69;100820.97;5060144;57;1139144;-75
2022/05/14 00:15:24;;;;;;;5.33;2.37;;;;;;;12.87;69.13;100819.41;5065960;58;1139132;-75
2022/05/14 00:20:31;;;;;;;7.63;2.40;;;;;;;12.84;69.51;100817.84;5024927;57;1139042;-74
2022/05/14 00:25:38;;;;;;;5.30;2.20;;;;;;;12.80;69.41;100826.20;5066359;58;1139021;-75
2022/05/14 00:30:44;;;;;;;8.77;2.00;;;;;;;12.76;69.45;100818.12;5066208;57;1139271;-74
2022/05/14 00:35:50;;;;;;;7.03;2.30;;;;;;;12.75;69.84;100818.61;5120068;57;1139247;-75
2022/05/14 00:41:05;;;;;;;3.27;1.93;;;;;;;12.72;69.82;100814.88;5180129;56;1139062;-74
2022/05/14 00:46:16;;;;;;;13.30;2.50;;;;;;;12.75;69.96;100814.63;5240192;56;1139032;-75
2022/05/14 00:51:26;;;;;;;7.00;2.40;;;;;;;12.77;69.98;100812.70;5240202;56;1139052;-75
2022/05/14 00:56:36;;;;;;;12.20;2.43;;;;;;;12.77;70.16;100815.36;5221764;56;1137012;-74
2022/05/14 01:01:43;;;;;;;5.97;2.58;;;;;;;12.75;70.53;100814.63;5127863;57;1139065;-75
2022/05/14 01:07:06;;;;;;;6.33;1.93;;;;;;;12.76;70.80;100804.86;5128448;56;1136935;-75
2022/05/14 01:12:14;;;;;;;4.53;2.07;;;;;;;12.71;70.76;100803.05;5081172;56;1136951;-75
2022/05/14 01:17:21;;;;;;;6.47;2.30;;;;;;;12.72;70.72;100800.77;5045445;57;1136894;-75
2022/05/14 01:22:53;;;;;;;7.73;1.60;;;;;;;12.71;70.92;100795.94;5002121;57;1137169;-75
2022/05/14 01:28:01;;;;;;;4.50;1.70;;;;;;;12.70;71.12;100795.58;5146484;56;21168;-75
2022/05/14 01:33:07;;;;;;;4.97;2.13;;;;;;;12.71;71.29;100796.42;5128450;56;1134830;-75
2022/05/14 01:38:24;;;;;;;9.80;2.70;;;;;;;12.74;71.54;100794.84;5113554;57;1138960;-74
2022/05/14 01:43:30;;;;;;;7.53;2.30;;;;;;;12.75;72.57;100790.75;5043353;58;1139235;-75
2022/05/14 01:48:37;;;;;;;9.43;2.10;;;;;;;12.75;72.16;100793.88;4961186;59;1139058;-74
2022/05/14 01:53:44;;;;;;;3.07;1.50;;;;;;;12.75;72.04;100779.28;4891624;59;1138974;-74
2022/05/14 01:58:50;;;;;;;5.37;2.00;;;;;;;12.79;72.52;100783.38;4970820;59;1138993;-74
2022/05/14 02:04:10;;;;;;;5.07;1.67;;;;;;;12.77;72.29;100782.66;4971647;59;1139083;-75
2022/05/14 02:09:17;;;;;;;4.10;1.87;;;;;;;12.74;72.90;100787.73;4973315;59;1138993;-75
2022/05/14 02:14:24;;;;;;;11.57;2.70;;;;;;;12.69;72.60;100785.45;4898094;60;1139051;-74
2022/05/14 02:19:30;;;;;;;6.43;1.70;;;;;;;12.67;72.65;100784.76;4898561;59;1141303;-75
2022/05/14 02:24:37;;;;;;;6.93;1.87;;;;;;;12.65;72.53;100791.16;4898533;60;1139009;-74
2022/05/14 02:29:53;;;;;;;10.47;2.03;;;;;;;12.61;72.87;100792.36;4898381;59;1139048;-74
2022/05/14 02:34:59;;;;;;;8.97;2.23;;;;;;;12.58;72.84;100788.63;4950681;58;1141109;-74
2022/05/14 02:40:07;;;;;;;9.37;2.87;;;;;;;12.60;73.59;100788.02;5010878;58;1139040;-75
2022/05/14 02:45:13;;;;;;;4.13;1.70;;;;;;;12.58;73.60;100797.91;4888599;59;1139142;-75
2022/05/14 02:50:20;;;;;;;5.60;2.00;;;;;;;12.62;73.81;100792.24;4973708;59;1139077;-74
2022/05/14 02:55:27;;;;;;;4.40;2.10;;;;;;;12.63;74.31;100787.30;4890302;60;1139033;-74
2022/05/14 03:00:33;;;;;;;6.20;2.43;;;;;;;12.63;73.99;100773.19;5073661;57;1138953;-75
2022/05/14 03:05:39;;;;;;;9.23;2.10;;;;;;;12.67;73.52;100783.43;5073425;58;1139233;-75
2022/05/14 03:10:45;;;;;;;4.60;1.70;;;;;;;12.69;73.07;100784.60;5060860;57;1139291;-75
2022/05/14 03:15:51;;;;;;;8.47;2.67;;;;;;;12.63;72.87;100793.08;5162375;56;1138991;-74
2022/05/14 03:20:58;;;;;;;6.30;2.07;;;;;;;12.51;72.90;100796.27;5184535;56;1139219;-74
2022/05/14 03:26:04;;;;;;;5.67;2.20;;;;;;;12.45;73.16;100797.23;5140310;57;1139219;-74
2022/05/14 03:31:10;;;;;;;9.97;2.37;;;;;;;12.39;72.90;100806.52;5104996;57;1139045;-74
2022/05/14 03:36:16;;;;;;;7.20;2.60;;;;;;;12.29;73.07;100805.58;5153717;57;1139051;-75
2022/05/14 03:41:23;;;;;;;5.13;1.90;;;;;;;12.21;73.22;100802.71;5054761;58;1139023;-75
2022/05/14 03:46:29;;;;;;;9.00;2.13;;;;;;;12.19;73.72;100799.33;5094985;57;1138981;-74
2022/05/14 03:51:36;;;;;;;3.90;1.93;;;;;;;12.28;73.80;100802.08;5129732;57;1138910;-75
2022/05/14 03:56:42;;;;;;;4.10;2.30;;;;;;;12.32;73.77;100799.55;5102015;57;1138940;-74
2022/05/14 04:01:48;;;;;;;8.57;2.80;;;;;;;12.41;74.00;100786.50;4962797;59;1138969;-75
2022/05/14 04:06:54;;;;;;;5.08;1.85;;;;;;;12.35;74.38;100796.30;4962393;59;1136936;-75
2022/05/14 04:12:00;;;;;;;7.63;2.43;;;;;;;12.20;74.19;100793.06;4960750;59;1136933;-74
2022/05/14 04:17:06;;;;;;;6.27;2.00;;;;;;;12.17;74.55;100798.12;4913947;59;1136961;-74
2022/05/14 04:22:12;;;;;;;7.45;2.17;;;;;;;12.11;75.04;100796.43;4919245;59;1137013;-75
2022/05/14 04:27:18;;;;;;;7.63;2.27;;;;;;;12.05;75.16;100773.92;4963329;58;1137206;-74
2022/05/14 04:32:24;;;;;;;4.97;2.33;;;;;;;12.08;75.40;100780.28;5027384;58;1137046;-74
2022/05/14 04:37:29;;;;;;;7.87;2.80;;;;;;;12.01;76.34;100785.73;5120442;57;1136944;-75
2022/05/14 04:42:40;;;;;;;9.63;3.10;;;;;;;11.90;76.33;100779.95;4981286;58;1136903;-75
2022/05/14 04:47:43;;;;;;;7.10;2.60;;;;;;;11.91;75.98;100772.37;4881204;60;1136917;-75
2022/05/14 04:52:49;;;;;;;5.00;2.47;;;;;;;11.97;76.13;100784.27;4881541;60;1136919;-75
2022/05/14 04:57:55;;;;;;;8.13;2.53;;;;;;;11.95;76.08;100788.85;4939774;59;1136942;-77
2022/05/14 05:03:24;;;;;;;8.43;2.80;;;;;;;11.95;76.30;100779.09;4924167;59;1136887;-76
2022/05/14 05:08:31;;;;;;;10.93;3.93;;;;;;;12.00;76.32;100768.13;5126198;57;1136770;-77
2022/05/14 05:13:37;;;;;;;6.03;3.00;;;;;;;12.06;76.47;100761.52;5137923;57;1137026;-77
2022/05/14 05:18:43;;;;;;;4.80;2.27;;;;;;;12.29;76.40;100761.34;5118464;57;1134803;-77
2022/05/14 05:23:50;;;;;;;5.55;2.40;;;;;;;12.42;76.00;100765.64;5101689;57;1138917;-77
2022/05/14 05:28:56;;;;;;;10.43;3.30;;;;;;;12.52;75.99;100767.92;5033335;57;1139158;-78
2022/05/14 05:34:03;;;;;;;11.43;2.60;;;;;;;12.67;75.71;100779.45;5013314;58;1141039;-74
2022/05/14 05:39:10;;;;;;;10.55;2.30;;;;;;;12.78;75.62;100786.52;5084657;57;1141035;-77
2022/05/14 05:44:16;;;;;;;9.00;2.17;;;;;;;12.85;75.63;100782.37;4936349;59;1140671;-78
2022/05/14 05:49:23;;;;;;;13.03;3.10;;;;;;;12.96;75.21;100778.84;4995611;58;1138992;-74
2022/05/14 05:59:52;;;;;;;6.45;1.98;;;;;;;13.36;74.39;100801.59;4991052;57;1139037;-74
2022/05/14 06:04:58;;;;;;;8.35;2.65;;;;;;;13.33;73.45;100801.84;5007231;57;1138881;-76
2022/05/14 06:10:06;;;;;;;18.70;2.83;;;;;;;13.27;73.57;100799.72;4997316;57;1138934;-75
2022/05/14 06:15:17;;;;;;;8.65;2.85;;;;;;;13.29;74.60;100797.78;4984316;57;1141040;-76
2022/05/14 06:20:23;;;;;;;12.93;3.50;;;;;;;13.42;74.26;100796.25;5021224;58;1138936;-76
2022/05/14 06:25:31;;;;;;;6.73;2.53;;;;;;;13.67;74.64;100803.31;4962874;59;1141270;-75
2022/05/14 06:30:41;;;;;;;8.67;2.90;;;;;;;13.84;73.90;100807.18;5042917;58;1139069;-75
2022/05/14 06:35:45;;;;;;;8.10;2.50;;;;;;;13.93;73.57;100806.37;5023800;58;1139005;-75
2022/05/14 06:40:50;;;;;;;12.50;3.27;;;;;;;14.08;72.48;100805.52;5043008;57;1138992;-75
2022/05/14 06:45:56;;;;;;;9.97;2.90;;;;;;;14.18;72.83;100813.06;5045680;58;1141128;-74
2022/05/14 06:51:09;;;;;;;9.73;2.93;;;;;;;14.41;71.19;100808.38;5049585;57;1138981;-77
2022/05/14 06:56:15;;;;;;;;;;;;;;;14.41;71.19;100808.38;4981410;58;1138986;-75
2022/05/14 07:01:21;;;;;;;9.77;3.43;;;;;;;14.60;70.43;100813.75;4973660;58;976341;-77
2022/05/14 07:06:39;;;;;;;10.23;2.97;;;;;;;14.70;69.67;100799.95;4986197;58;1137274;-77
2022/05/14 07:11:49;;;;;;;7.03;3.17;;;;;;;14.79;68.71;100802.30;5044378;58;1141070;-75
2022/05/14 07:16:54;;;;;;;5.47;2.20;;;;;;;14.90;67.94;100794.16;5000322;58;1139009;-75
2022/05/14 07:22:00;;;;;;;8.63;2.90;;;;;;;14.94;66.23;100798.72;5082636;57;1139254;-75
2022/05/14 07:27:11;;;;;;;6.40;2.20;;;;;;;14.89;64.98;100791.14;4960920;59;1139066;-75
2022/05/14 07:32:18;;;;;;;5.93;2.20;;;;;;;15.07;63.05;100792.13;4902358;58;1139032;-76
2022/05/14 07:37:36;;;;;;;14.60;3.57;;;;;;;15.51;62.42;100790.30;5036245;58;1138989;-77
2022/05/14 07:42:55;;;;;;;8.33;2.20;;;;;;;15.72;56.78;100792.32;4960631;59;1139007;-76
2022/05/14 07:48:05;;;;;;;6.70;2.47;;;;;;;15.61;57.81;100789.80;5043222;58;1136913;-77
2022/05/14 07:53:11;;;;;;;5.50;2.03;;;;;;;15.45;58.25;100798.37;5030227;58;1137147;-76
2022/05/14 07:58:17;;;;;;;4.63;2.30;;;;;;;15.30;58.96;100794.47;4986976;58;1136937;-77
2022/05/14 08:03:24;;;;;;;6.30;2.63;;;;;;;15.28;61.13;100791.94;4990200;58;1136923;-77
2022/05/14 08:08:31;;;;;;;9.33;2.53;;;;;;;15.26;59.69;100804.59;5147417;56;1137429;-75
2022/05/14 08:13:37;;;;;;;7.93;2.40;;;;;;;15.11;59.10;100802.86;5022412;58;1137046;-75
2022/05/14 08:18:44;;;;;;;9.57;2.10;;;;;;;15.10;58.71;100800.33;5136794;57;1136920;-77
2022/05/14 08:29:13;;;;;;;16.60;2.10;;;;;;;15.72;56.09;100802.50;5041691;58;1139145;-73
2022/05/14 08:34:20;;;;;;;11.77;1.80;;;;;;;15.97;55.60;100811.66;5025507;58;1136869;-75
2022/05/14 08:39:28;;;;;;;10.43;2.83;;;;;;;16.15;52.87;100803.72;5140543;57;1136941;-78
2022/05/14 08:44:36;;;;;;;10.60;2.80;;;;;;;16.16;53.95;100796.91;5117852;57;1141054;-77
2022/05/14 08:49:49;;;;;;;24.10;2.97;;;;;;;16.19;55.46;100797.92;5138008;56;1141041;-76
2022/05/14 08:54:58;;;;;;;14.15;2.55;;;;;;;16.21;53.67;100795.11;5153062;56;1141285;-77
2022/05/14 09:00:07;;;;;;;12.90;2.50;;;;;;;16.17;53.70;100785.25;5139333;56;1141022;-76
2022/05/14 09:05:20;;;;;;;14.33;3.37;;;;;;;16.54;54.76;100787.81;4981313;57;1141155;-75
2022/05/14 09:10:30;;;;;;;11.38;2.77;;;;;;;16.58;54.05;100784.85;4982309;58;1141036;-77
2022/05/14 09:15:39;;;;;;;10.37;2.83;;;;;;;16.61;54.72;100776.05;5025077;57;1141081;-76
2022/05/14 09:20:55;;;;;;;10.47;3.30;;;;;;;16.88;55.23;100780.01;4964266;58;1141062;-76
2022/05/14 09:26:14;;;;;;;13.70;2.43;;;;;;;16.86;52.93;100772.64;5087456;56;1141055;-77
2022/05/14 09:31:34;;;;;;;13.77;2.87;;;;;;;16.99;54.91;100770.91;5072864;57;1141252;-76
2022/05/14 09:36:44;;;;;;;11.67;2.23;;;;;;;17.15;51.62;100772.87;5103026;56;1141071;-76
2022/05/14 09:41:53;;;;;;;16.67;3.23;;;;;;;17.30;51.07;100776.66;5104018;57;1141113;-77
2022/05/14 09:47:10;;;;;;;10.00;3.43;;;;;;;17.18;52.18;100777.42;4930272;58;1141124;-78
2022/05/14 09:52:19;;;;;;;24.97;3.40;;;;;;;17.17;52.87;100773.56;4987745;57;1141244;-76
2022/05/14 09:57:47;;;;;;;7.33;2.33;;;;;;;17.27;53.60;100769.45;5081958;57;1141065;-75
2022/05/14 10:03:12;;;;;;;10.67;2.30;;;;;;;17.33;53.78;100771.02;4914029;59;1139029;-76
2022/05/14 10:08:28;;;;;;;5.23;1.90;;;;;;;17.30;52.40;100767.80;4936371;59;1139065;-76
2022/05/14 10:13:44;;;;;;;12.17;3.03;;;;;;;17.26;52.33;100771.31;4933005;59;1136872;-76
2022/05/14 10:19:27;;;;;;;7.87;2.67;;;;;;;17.26;52.22;100760.62;4900218;59;1138985;-77
2022/05/14 10:30:29;;;;;;;8.97;2.67;;;;;;;17.61;51.55;100758.81;5116637;57;1141045;-76
2022/05/14 10:35:56;;;;;;;14.37;2.43;;;;;;;17.59;52.89;100751.78;5112484;57;1139143;-76
2022/05/14 10:41:08;;;;;;;18.30;3.73;;;;;;;17.52;49.54;100752.59;5109167;57;1141056;-77
2022/05/14 10:46:20;;;;;;;8.47;3.17;;;;;;;17.18;52.42;100761.38;5131707;56;1141058;-76
2022/05/14 10:51:35;;;;;;;16.93;3.53;;;;;;;17.08;53.67;100754.46;5039270;58;1139007;-78
2022/05/14 10:56:57;;;;;;;19.33;3.43;;;;;;;17.02;54.70;100755.91;4967601;58;1141082;-75
2022/05/14 11:02:27;;;;;;;11.03;2.80;;;;;;;16.86;53.57;100748.59;4971272;59;1141027;-75
2022/05/14 11:07:43;;;;;;;9.87;3.30;;;;;;;16.73;54.33;100760.17;4938472;59;1141196;-75
2022/05/14 11:12:46;;;;;;;13.70;3.50;;;;;;;16.72;54.92;100767.00;4954479;58;1139095;-75
2022/05/14 11:18:05;;;;;;;12.60;2.80;;;;;;;16.74;54.60;100770.36;4972901;58;1141205;-75
2022/05/14 11:23:13;;;;;;;11.43;3.60;;;;;;;16.81;53.22;100774.08;4945625;59;1141104;-75
2022/05/14 11:28:27;;;;;;;9.20;1.80;;;;;;;16.80;53.94;100774.58;4976144;59;1141044;-76
2022/05/14 11:33:34;;;;;;;11.73;2.50;;;;;;;16.84;53.08;100778.63;4976319;59;1137002;-75
2022/05/14 11:38:52;;;;;;;9.50;2.73;;;;;;;16.88;52.62;100781.34;4975824;59;1139033;-76
2022/05/14 11:43:55;;;;;;;12.87;3.07;;;;;;;17.06;52.42;100783.17;5132271;57;1137147;-74
2022/05/14 11:49:05;;;;;;;10.10;2.20;;;;;;;17.18;51.41;100789.45;5065565;57;1139069;-74
2022/05/14 11:54:52;;;;;;;10.80;2.17;;;;;;;17.20;49.71;100787.47;5022509;58;1139133;-76
2022/05/14 12:00:20;;;;;;;5.27;1.70;;;;;;;17.17;50.39;100800.30;5065495;58;1139012;-75
2022/05/14 12:05:40;;;;;;;7.53;2.23;;;;;;;17.16;49.85;100782.08;5091156;57;1138995;-76
2022/05/14 12:11:18;;;;;;;13.47;3.17;;;;;;;17.21;50.08;100794.98;5175408;57;1139179;-77
2022/05/14 12:16:49;;;;;;;9.73;2.30;;;;;;;17.36;50.26;100797.44;5093520;56;1141624;-75
2022/05/14 12:21:59;;;;;;;10.27;2.37;;;;;;;17.48;50.24;100796.19;5131580;56;1138929;-76
2022/05/14 12:27:19;;;;;;;12.43;2.67;;;;;;;17.49;50.68;100800.54;5141278;56;1141114;-75
2022/05/14 12:37:52;;;;;;;10.43;2.53;;;;;;;17.49;51.68;100793.86;4991271;58;1141076;-76
2022/05/14 12:43:00;;;;;;;8.00;2.90;;;;;;;17.62;50.30;100798.78;5099412;57;1141095;-77
2022/05/14 12:48:07;;;;;;;4.83;2.20;;;;;;;17.66;50.07;100806.03;5043246;58;1139005;-75
2022/05/14 12:53:14;;;;;;;9.20;2.57;;;;;;;17.68;50.77;100807.56;4972058;58;1138993;-75
2022/05/14 12:58:21;;;;;;;5.60;1.93;;;;;;;17.69;49.69;100809.23;4885535;60;1139324;-75
2022/05/14 13:03:41;;;;;;;8.93;2.70;;;;;;;17.70;49.63;100807.41;4931975;59;1139052;-76
2022/05/14 13:08:54;;;;;;;12.10;3.33;;;;;;;17.65;49.49;100811.88;4955687;59;1137008;-74
2022/05/14 13:14:25;;;;;;;7.97;2.27;;;;;;;17.63;50.35;100808.98;5150224;57;1139013;-75
2022/05/14 13:19:46;;;;;;;13.30;3.20;;;;;;;17.63;51.67;100815.17;5146587;57;1136924;-75
2022/05/14 13:24:56;;;;;;;9.70;2.33;;;;;;;17.72;51.76;100814.25;5144065;57;1138952;-75
2022/05/14 13:30:15;;;;;;;6.13;2.33;;;;;;;17.74;49.49;100797.55;5149214;57;1136988;-76
2022/05/14 13:40:58;;;;;;;12.47;3.73;;;;;;;17.71;50.35;100803.23;5072012;57;1138952;-74
2022/05/14 13:46:08;;;;;;;15.37;2.57;;;;;;;17.73;50.37;100802.55;5053803;58;1141075;-75
2022/05/14 13:51:22;;;;;;;10.23;2.40;;;;;;;17.89;50.56;100791.94;5053804;58;1141083;-75
2022/05/14 13:56:32;;;;;;;14.20;3.00;;;;;;;17.99;50.98;100778.95;5045486;58;1141079;-74
2022/05/14 14:01:59;;;;;;;9.47;2.97;;;;;;;17.96;50.34;100787.30;5053836;58;1140482;-75
2022/05/14 14:07:05;;;;;;;7.90;2.52;;;;;;;17.91;51.43;100793.13;5060849;58;1139473;-75
2022/05/14 14:12:23;;;;;;;13.57;3.67;;;;;;;17.89;50.82;100782.58;5069970;57;1138592;-76
2022/05/14 14:17:20;;;;;;;6.70;2.60;;;;;;;17.81;50.69;100798.59;5021635;58;1141328;-76
2022/05/14 14:22:32;;;;;;;31.70;12.57;;;;;;;17.79;50.48;100797.91;5012415;58;1139157;-75
2022/05/14 14:27:39;;;;;;;18.92;6.12;;;;;;;17.82;49.95;100795.42;4887870;59;1143099;-75
2022/05/14 14:32:45;;;;;;;9.33;4.10;;;;;;;17.84;50.35;100801.46;5014081;58;1141117;-75
2022/05/14 14:37:51;;;;;;;18.87;4.23;;;;;;;17.91;50.77;100793.13;5062603;57;1139253;-74
2022/05/14 14:42:58;;;;;;;4.77;2.23;;;;;;;18.11;49.93;100799.92;4999823;58;1141165;-75
2022/05/14 14:48:05;;;;;;;7.33;2.27;;;;;;;18.10;48.70;100800.08;5084882;57;1139379;-75
2022/05/14 14:53:19;;;;;;;7.17;2.40;;;;;;;18.11;48.70;100797.23;5110584;57;1139048;-75
2022/05/14 14:58:25;;;;;;;13.57;2.50;;;;;;;18.22;48.26;100796.94;5118733;57;1139020;-76
2022/05/14 15:03:54;;;;;;;12.70;2.93;;;;;;;18.31;48.41;100784.44;5102435;57;1141105;-73
2022/05/14 15:09:02;;;;;;;4.23;1.67;;;;;;;18.52;48.93;100790.67;5083148;57;1140981;-75
2022/05/14 15:14:15;;;;;;;11.40;2.67;;;;;;;18.55;46.98;100791.19;5041634;57;1139150;-74
2022/05/14 15:19:21;;;;;;;15.98;2.55;;;;;;;18.64;46.91;100792.59;5142011;57;21103;-74
2022/05/14 15:24:31;;;;;;;7.15;1.40;;;;;;;18.62;44.98;100795.44;5067360;57;1134825;-74
2022/05/14 15:29:41;;;;;;;7.30;2.12;;;;;;;18.69;45.03;100792.92;5106862;57;1136844;-74
2022/05/14 15:40:13;;;;;;;8.63;2.25;;;;;;;18.63;45.96;100794.44;4934584;58;1136845;-74
2022/05/14 15:51:43;;;;;;;10.88;2.25;;;;;;;18.50;46.06;100793.52;5377187;54;46301;-73
2022/05/14 15:56:51;;;;;;;10.65;2.47;;;;;;;18.37;46.37;100796.32;5116279;57;1136834;-72
2022/05/14 16:01:56;;;;;;;6.42;2.33;;;;;;;18.61;47.02;100783.88;5024709;58;1141316;-75
2022/05/14 16:07:05;;;;;;;8.80;2.95;;;;;;;18.84;46.40;100776.53;5052119;58;1139199;-74
2022/05/14 16:17:34;;;;;;;8.48;3.12;;;;;;;18.82;45.60;100771.83;5057412;58;1139351;-74
2022/05/14 16:22:40;;;;;;;7.70;3.27;;;;;;;18.59;46.42;100774.33;5046987;58;1139054;-74
2022/05/14 16:27:46;;;;;;;10.60;3.40;;;;;;;18.55;47.39;100770.27;5040730;57;1138984;-75
2022/05/14 16:32:51;;;;;;;11.00;2.58;;;;;;;18.53;46.89;100764.23;5081922;57;1141030;-74
2022/05/14 16:37:57;;;;;;;8.60;2.30;;;;;;;18.42;47.08;100769.90;5038718;58;1140935;-74
2022/05/14 16:43:04;;;;;;;3.97;1.80;;;;;;;18.36;47.46;100778.58;4997879;58;1138622;-74
2022/05/14 16:48:13;;;;;;;10.38;2.18;;;;;;;18.45;47.64;100773.09;5141442;57;1139180;-75
2022/05/14 16:53:18;;;;;;;6.15;2.77;;;;;;;18.55;47.03;100771.60;5121782;57;1141397;-75
2022/05/14 16:58:26;;;;;;;5.22;2.27;;;;;;;18.61;47.43;100776.34;5067493;57;1139155;-75
2022/05/14 17:03:31;;;;;;;8.88;2.72;;;;;;;18.64;46.87;100775.19;5079713;57;1138996;-75
2022/05/14 17:08:37;;;;;;;10.88;2.90;;;;;;;18.54;47.15;100774.78;5085060;57;1139005;-75
2022/05/14 17:13:43;;;;;;;6.28;2.45;;;;;;;18.45;47.78;100771.76;5146376;57;1141179;-75
2022/05/14 17:18:49;;;;;;;11.95;3.02;;;;;;;18.37;48.09;100776.23;5148865;56;1139075;-74
2022/05/14 17:23:55;;;;;;;21.87;2.95;;;;;;;18.27;48.31;100777.22;5148923;57;1141236;-74
2022/05/14 17:29:00;;;;;;;23.87;3.05;;;;;;;18.16;47.68;100779.36;5084800;57;1141428;-76
2022/05/14 17:34:06;;;;;;;8.90;2.63;;;;;;;18.11;47.65;100779.00;5108733;56;1141105;-75
2022/05/14 17:44:41;;;;;;;12.13;3.80;;;;;;;17.99;47.43;100782.47;5148795;57;1139047;-75
2022/05/14 17:49:49;;;;;;;55.40;7.20;;;;;;;17.87;47.69;100785.91;5025057;57;1139337;-74
2022/05/14 17:55:29;;;;;;;;;;;;;;;;;;;;;
2022/05/14 18:06:45;;;;;;;10.67;3.20;;;;;;;17.54;49.12;100806.77;5131228;56;1140961;-74
2022/05/14 18:11:49;;;;;;;10.93;2.53;;;;;;;17.45;49.57;100817.05;5228284;56;1141275;-74
2022/05/14 18:16:58;;;;;;;7.53;3.97;;;;;;;17.36;49.97;100816.66;5089583;57;1140980;-74
2022/05/14 18:22:05;;;;;;;7.67;2.73;;;;;;;17.26;50.35;100822.10;5064883;57;1138994;-74
2022/05/14 18:27:16;;;;;;;24.97;9.83;;;;;;;17.21;50.89;100829.23;5093045;57;1139061;-74
2022/05/14 18:32:29;;;;;;;11.07;4.27;;;;;;;17.12;51.17;100826.63;5148806;57;1141412;-74
2022/05/14 18:37:35;;;;;;;12.30;5.57;;;;;;;17.05;51.61;100837.61;5135425;57;1141404;-74
2022/05/14 18:42:42;;;;;;;19.80;6.27;;;;;;;16.97;51.97;100839.69;5120186;56;1141128;-73
2022/05/14 18:47:48;;;;;;;14.67;6.30;;;;;;;16.91;52.66;100842.98;5183446;56;1141100;-74
2022/05/14 18:52:54;;;;;;;16.87;5.80;;;;;;;16.83;53.08;100842.89;5124802;57;1141153;-74
2022/05/14 18:58:00;;;;;;;12.57;4.50;;;;;;;16.76;53.30;100844.50;5106947;57;1141224;-74
2022/05/14 19:03:07;;;;;;;17.00;4.80;;;;;;;16.73;53.49;100852.81;5103982;57;1141099;-74
2022/05/14 19:08:13;;;;;;;18.63;3.80;;;;;;;16.65;53.66;100863.42;5099121;57;1141316;-74
2022/05/14 19:13:19;;;;;;;9.63;3.77;;;;;;;16.60;53.75;100870.50;5141012;57;1141094;-74
2022/05/14 19:18:26;;;;;;;18.60;5.10;;;;;;;16.47;54.00;100884.20;5110434;57;1139148;-73
2022/05/14 19:23:32;;;;;;;11.07;3.70;;;;;;;16.32;54.44;100885.69;5148494;57;1141217;-74
2022/05/14 19:28:38;;;;;;;15.57;4.83;;;;;;;16.14;54.79;100880.27;5148650;57;1141117;-75
2022/05/14 19:33:46;;;;;;;15.80;4.17;;;;;;;16.06;55.19;100888.64;5145076;56;1141020;-74
2022/05/14 19:38:53;;;;;;;18.83;6.17;;;;;;;16.02;55.40;100889.45;5180041;56;1141373;-74
2022/05/14 19:44:06;;;;;;;19.03;6.40;;;;;;;15.96;55.57;100893.17;5155126;56;1141105;-73
2022/05/14 19:49:17;;;;;;;21.47;5.93;;;;;;;15.87;55.79;100892.22;5105473;57;1141130;-74
2022/05/14 19:54:24;;;;;;;16.00;5.33;;;;;;;15.83;56.00;100898.82;5129863;57;1141699;-74
2022/05/14 19:59:30;;;;;;;14.07;6.10;;;;;;;15.86;56.47;100899.03;5136306;57;1141247;-74
2022/05/14 20:04:35;;;;;;;19.20;6.37;;;;;;;15.83;56.48;100904.16;5136386;57;1141148;-74
2022/05/14 20:09:41;;;;;;;16.70;6.97;;;;;;;15.80;56.61;100911.95;5124612;57;1141228;-74
2022/05/14 20:14:47;;;;;;;15.20;5.83;;;;;;;15.70;56.81;100910.28;5124248;57;1141365;-73
2022/05/14 20:25:19;;;;;;;;;;;;;;;15.51;57.30;100914.27;5056871;58;1139091;-74
2022/05/14 20:30:25;;;;;;;12.83;5.57;;;;;;;15.41;57.62;100914.28;5055530;57;974414;-74
2022/05/14 20:35:31;;;;;;;21.47;6.57;;;;;;;15.29;58.32;100934.87;5117802;57;1136977;-74
2022/05/14 20:40:37;;;;;;;14.27;7.00;;;;;;;15.22;58.83;100944.41;5136625;57;1139034;-74
2022/05/14 20:45:43;;;;;;;23.50;6.93;;;;;;;15.14;59.23;100951.75;5136611;57;1139122;-74
2022/05/14 20:50:49;;;;;;;17.20;6.83;;;;;;;15.10;59.39;100953.52;5136808;57;1139094;-73
2022/05/14 20:55:55;;;;;;;15.63;7.17;;;;;;;15.09;59.40;100956.67;5149907;57;1139040;-74
2022/05/14 21:01:01;;;;;;;30.30;11.90;;;;;;;15.08;59.50;100958.98;5150094;57;1139245;-74
2022/05/14 21:06:06;;;;;;;24.43;10.60;;;;;;;15.01;59.61;100964.48;5107002;57;1141191;-74
2022/05/14 21:11:12;;;;;;;24.17;8.40;;;;;;;14.95;59.88;100967.72;4995758;58;1141064;-74
2022/05/14 21:16:18;;;;;;;30.97;11.53;;;;;;;14.86;59.99;100971.17;5012119;58;1139225;-74
2022/05/14 21:21:24;;;;;;;42.27;13.83;;;;;;;14.74;60.11;100968.27;4988122;58;1141423;-74
2022/05/14 21:26:31;;;;;;;12.93;5.10;;;;;;;14.74;60.36;100969.60;5058258;58;1141354;-74
2022/05/14 21:31:39;;;;;;;24.97;9.57;;;;;;;14.72;60.33;100974.21;4953443;58;1139030;-74
2022/05/14 21:42:08;;;;;;;14.35;4.58;;;;;;;14.62;60.58;100980.00;5083601;57;21564;-73
2022/05/14 21:47:14;;;;;;;16.97;6.87;;;;;;;14.46;60.73;100984.97;5012402;58;1137108;-74
2022/05/14 21:52:20;;;;;;;15.63;5.10;;;;;;;14.39;60.99;100985.45;4970872;57;1141175;-73
2022/05/14 21:57:25;;;;;;;12.60;4.57;;;;;;;14.40;61.36;100993.82;4959444;57;1141534;-74
2022/05/14 22:02:33;;;;;;;11.77;3.53;;;;;;;14.42;61.44;100998.53;5092552;57;1141099;-74
2022/05/14 22:07:40;;;;;;;11.63;4.20;;;;;;;14.36;61.28;101001.67;4951968;58;1141197;-74
2022/05/14 22:12:46;;;;;;;15.27;5.73;;;;;;;14.26;61.32;101002.59;5053387;57;1141140;-74
2022/05/14 22:17:52;;;;;;;16.87;6.13;;;;;;;14.22;61.50;101009.14;5052288;57;1141130;-74
2022/05/14 22:22:57;;;;;;;20.27;6.43;;;;;;;14.18;61.64;101012.58;5044954;58;1141288;-74
2022/05/14 22:28:03;;;;;;;14.30;4.20;;;;;;;14.15;61.69;101010.17;5044812;58;1141454;-73
2022/05/14 22:33:09;;;;;;;17.37;6.80;;;;;;;14.07;61.55;101012.13;4996692;58;1141121;-74
2022/05/14 22:38:16;;;;;;;13.20;4.97;;;;;;;13.99;61.85;101013.28;5020722;58;1141083;-73
2022/05/14 22:43:33;;;;;;;16.33;4.50;;;;;;;13.94;61.87;101014.14;5023796;58;1141236;-74
2022/05/14 22:48:40;;;;;;;9.63;3.33;;;;;;;13.83;62.22;101020.00;5054384;58;1141091;-73
2022/05/14 22:53:47;;;;;;;8.53;2.90;;;;;;;13.72;62.10;101027.06;5001715;57;1139117;-74
2022/05/14 22:58:53;;;;;;;12.07;3.73;;;;;;;13.63;62.38;101021.16;5191620;56;1139029;-73
2022/05/14 23:03:58;;;;;;;12.40;3.73;;;;;;;13.58;62.58;101018.55;5193189;56;1141110;-73
2022/05/14 23:09:04;;;;;;;9.53;3.37;;;;;;;13.53;62.65;101020.23;5167798;56;1141233;-73
2022/05/14 23:14:10;;;;;;;12.20;3.55;;;;;;;13.47;62.68;101016.74;5204802;56;1139123;-74
2022/05/14 23:19:15;;;;;;;14.73;3.37;;;;;;;13.37;62.81;101007.36;5185373;57;1141113;-74
2022/05/14 23:24:22;;;;;;;9.77;3.37;;;;;;;13.16;62.83;101010.41;5181867;56;1140974;-74
2022/05/14 23:29:28;;;;;;;18.47;4.77;;;;;;;13.06;63.21;101005.46;5236000;56;1139045;-74
2022/05/14 23:34:33;;;;;;;8.63;3.60;;;;;;;13.00;63.50;101004.13;5235913;56;1141522;-74
2022/05/14 23:39:39;;;;;;;7.05;3.35;;;;;;;13.00;63.70;101012.09;5199304;56;1139058;-74
2022/05/14 23:44:45;;;;;;;14.93;4.83;;;;;;;12.89;63.54;101003.30;5053605;58;1139092;-73
2022/05/14 23:49:52;;;;;;;13.00;3.33;;;;;;;12.80;63.75;101014.66;5111432;57;1141403;-73
2022/05/14 23:54:59;;;;;;;12.10;4.00;;;;;;;12.70;63.85;101010.55;5109536;57;1141036;-75
